sensor_id;sensor_type;location;lat;lon;timestamp;temperature;humidity
19248;DHT22;9758;48.640;8.148;2023-02-11T00:02:01;4.20;54.10
19248;DHT22;9758;48.640;8.148;2023-02-11T00:04:31;4.20;54.10
19248;DHT22;9758;48.640;8.148;2023-02-11T00:06:57;4.20;54.10
19248;DHT22;9758;48.640;8.148;2023-02-11T00:09:24;4.20;54.10
19248;DHT22;9758;48.640;8.148;2023-02-11T00:11:51;4.20;54.20
19248;DHT22;9758;48.640;8.148;2023-02-11T00:14:17;4.20;54.20
19248;DHT22;9758;48.640;8.148;2023-02-11T00:16:44;4.20;54.20
19248;DHT22;9758;48.640;8.148;2023-02-11T00:19:11;4.20;54.20
19248;DHT22;9758;48.640;8.148;2023-02-11T00:21:39;4.20;54.20
19248;DHT22;9758;48.640;8.148;2023-02-11T00:24:06;4.20;54.20
19248;DHT22;9758;48.640;8.148;2023-02-11T00:26:34;4.20;54.20
19248;DHT22;9758;48.640;8.148;2023-02-11T00:29:02;4.20;54.20
19248;DHT22;9758;48.640;8.148;2023-02-11T00:31:28;4.10;54.20
19248;DHT22;9758;48.640;8.148;2023-02-11T00:33:55;4.10;54.30
19248;DHT22;9758;48.640;8.148;2023-02-11T00:36:24;4.10;54.30
19248;DHT22;9758;48.640;8.148;2023-02-11T00:38:54;4.10;54.20
19248;DHT22;9758;48.640;8.148;2023-02-11T00:41:21;4.20;54.30
19248;DHT22;9758;48.640;8.148;2023-02-11T00:43:49;4.10;54.20
19248;DHT22;9758;48.640;8.148;2023-02-11T00:46:16;4.10;54.30
19248;DHT22;9758;48.640;8.148;2023-02-11T00:48:43;4.10;54.30
19248;DHT22;9758;48.640;8.148;2023-02-11T00:51:10;4.10;54.30
19248;DHT22;9758;48.640;8.148;2023-02-11T00:53:37;4.10;54.90
19248;DHT22;9758;48.640;8.148;2023-02-11T00:56:06;4.10;54.30
19248;DHT22;9758;48.640;8.148;2023-02-11T00:58:33;4.10;54.30
19248;DHT22;9758;48.640;8.148;2023-02-11T01:01:00;4.10;54.30
19248;DHT22;9758;48.640;8.148;2023-02-11T01:03:27;4.10;54.30
19248;DHT22;9758;48.640;8.148;2023-02-11T01:05:54;4.10;54.30
19248;DHT22;9758;48.640;8.148;2023-02-11T01:08:21;4.00;54.30
19248;DHT22;9758;48.640;8.148;2023-02-11T01:10:53;4.00;54.30
19248;DHT22;9758;48.640;8.148;2023-02-11T01:13:22;4.00;54.30
19248;DHT22;9758;48.640;8.148;2023-02-11T01:15:49;4.00;54.30
19248;DHT22;9758;48.640;8.148;2023-02-11T01:18:15;4.00;54.30
19248;DHT22;9758;48.640;8.148;2023-02-11T01:20:42;4.00;54.40
19248;DHT22;9758;48.640;8.148;2023-02-11T01:23:09;4.00;54.40
19248;DHT22;9758;48.640;8.148;2023-02-11T01:25:36;4.00;54.40
19248;DHT22;9758;48.640;8.148;2023-02-11T01:28:03;4.00;54.40
19248;DHT22;9758;48.640;8.148;2023-02-11T01:30:32;4.00;54.40
19248;DHT22;9758;48.640;8.148;2023-02-11T01:32:59;4.00;54.60
19248;DHT22;9758;48.640;8.148;2023-02-11T01:35:26;4.10;54.60
19248;DHT22;9758;48.640;8.148;2023-02-11T01:37:53;4.10;54.50
19248;DHT22;9758;48.640;8.148;2023-02-11T01:40:19;4.10;54.50
19248;DHT22;9758;48.640;8.148;2023-02-11T01:42:46;4.10;54.60
19248;DHT22;9758;48.640;8.148;2023-02-11T01:48:26;4.10;54.60
19248;DHT22;9758;48.640;8.148;2023-02-11T01:51:01;4.10;54.60
19248;DHT22;9758;48.640;8.148;2023-02-11T01:53:29;4.10;54.60
19248;DHT22;9758;48.640;8.148;2023-02-11T01:56:15;4.10;54.60
19248;DHT22;9758;48.640;8.148;2023-02-11T01:59:03;4.10;54.60
19248;DHT22;9758;48.640;8.148;2023-02-11T02:01:32;4.10;54.60
19248;DHT22;9758;48.640;8.148;2023-02-11T02:04:02;4.10;54.60
19248;DHT22;9758;48.640;8.148;2023-02-11T02:06:33;4.10;54.60
19248;DHT22;9758;48.640;8.148;2023-02-11T02:09:04;4.10;54.60
19248;DHT22;9758;48.640;8.148;2023-02-11T02:11:33;4.20;54.60
19248;DHT22;9758;48.640;8.148;2023-02-11T02:14:00;4.20;54.60
19248;DHT22;9758;48.640;8.148;2023-02-11T02:16:31;4.20;54.60
19248;DHT22;9758;48.640;8.148;2023-02-11T02:19:12;4.30;54.70
19248;DHT22;9758;48.640;8.148;2023-02-11T02:24:58;4.30;54.70
19248;DHT22;9758;48.640;8.148;2023-02-11T02:33:41;4.50;54.70
19248;DHT22;9758;48.640;8.148;2023-02-11T02:36:15;4.50;54.70
19248;DHT22;9758;48.640;8.148;2023-02-11T02:38:49;4.50;54.70
19248;DHT22;9758;48.640;8.148;2023-02-11T02:41:19;4.50;54.70
19248;DHT22;9758;48.640;8.148;2023-02-11T02:43:48;4.60;54.70
19248;DHT22;9758;48.640;8.148;2023-02-11T02:46:17;4.60;54.70
19248;DHT22;9758;48.640;8.148;2023-02-11T02:48:46;4.60;54.70
19248;DHT22;9758;48.640;8.148;2023-02-11T02:54:22;4.70;54.70
19248;DHT22;9758;48.640;8.148;2023-02-11T02:56:54;4.70;54.70
19248;DHT22;9758;48.640;8.148;2023-02-11T02:59:32;4.80;54.60
19248;DHT22;9758;48.640;8.148;2023-02-11T03:02:09;4.80;54.60
19248;DHT22;9758;48.640;8.148;2023-02-11T03:04:47;4.80;54.60
19248;DHT22;9758;48.640;8.148;2023-02-11T03:07:21;4.80;54.50
19248;DHT22;9758;48.640;8.148;2023-02-11T03:09:56;4.80;54.50
19248;DHT22;9758;48.640;8.148;2023-02-11T03:12:25;4.80;54.50
19248;DHT22;9758;48.640;8.148;2023-02-11T03:14:53;4.80;54.50
19248;DHT22;9758;48.640;8.148;2023-02-11T03:17:20;4.70;54.40
19248;DHT22;9758;48.640;8.148;2023-02-11T03:19:49;4.70;54.40
19248;DHT22;9758;48.640;8.148;2023-02-11T03:22:19;4.70;54.40
19248;DHT22;9758;48.640;8.148;2023-02-11T03:24:47;4.70;54.50
19248;DHT22;9758;48.640;8.148;2023-02-11T03:27:18;4.70;54.50
19248;DHT22;9758;48.640;8.148;2023-02-11T03:29:50;4.70;54.50
19248;DHT22;9758;48.640;8.148;2023-02-11T03:32:23;4.60;54.50
19248;DHT22;9758;48.640;8.148;2023-02-11T03:34:54;4.60;54.60
19248;DHT22;9758;48.640;8.148;2023-02-11T03:37:26;4.60;54.60
19248;DHT22;9758;48.640;8.148;2023-02-11T03:39:58;4.60;54.50
19248;DHT22;9758;48.640;8.148;2023-02-11T03:42:30;4.60;54.60
19248;DHT22;9758;48.640;8.148;2023-02-11T03:45:02;4.60;54.60
19248;DHT22;9758;48.640;8.148;2023-02-11T03:47:31;4.60;54.60
19248;DHT22;9758;48.640;8.148;2023-02-11T03:50:02;4.50;54.60
19248;DHT22;9758;48.640;8.148;2023-02-11T03:52:31;4.50;54.60
19248;DHT22;9758;48.640;8.148;2023-02-11T03:54:59;4.50;54.60
19248;DHT22;9758;48.640;8.148;2023-02-11T03:57:27;4.50;54.60
19248;DHT22;9758;48.640;8.148;2023-02-11T03:59:56;4.50;54.60
19248;DHT22;9758;48.640;8.148;2023-02-11T04:02:25;4.50;54.60
19248;DHT22;9758;48.640;8.148;2023-02-11T04:04:52;4.50;54.70
19248;DHT22;9758;48.640;8.148;2023-02-11T04:07:20;4.40;54.60
19248;DHT22;9758;48.640;8.148;2023-02-11T04:09:47;4.40;54.60
19248;DHT22;9758;48.640;8.148;2023-02-11T04:12:13;4.40;54.70
19248;DHT22;9758;48.640;8.148;2023-02-11T04:14:40;4.40;54.80
19248;DHT22;9758;48.640;8.148;2023-02-11T04:17:07;4.40;54.80
19248;DHT22;9758;48.640;8.148;2023-02-11T04:19:34;4.40;54.80
19248;DHT22;9758;48.640;8.148;2023-02-11T04:22:01;4.50;54.90
19248;DHT22;9758;48.640;8.148;2023-02-11T04:24:29;4.50;54.80
19248;DHT22;9758;48.640;8.148;2023-02-11T04:26:56;4.50;54.90
19248;DHT22;9758;48.640;8.148;2023-02-11T04:29:23;4.50;54.80
19248;DHT22;9758;48.640;8.148;2023-02-11T04:31:50;4.60;54.90
19248;DHT22;9758;48.640;8.148;2023-02-11T04:34:16;4.60;54.90
19248;DHT22;9758;48.640;8.148;2023-02-11T04:36:43;4.60;54.90
19248;DHT22;9758;48.640;8.148;2023-02-11T04:39:10;4.60;54.90
19248;DHT22;9758;48.640;8.148;2023-02-11T04:41:38;4.70;54.80
19248;DHT22;9758;48.640;8.148;2023-02-11T04:44:04;4.70;54.80
19248;DHT22;9758;48.640;8.148;2023-02-11T04:46:31;4.70;55.40
19248;DHT22;9758;48.640;8.148;2023-02-11T04:48:58;4.70;54.70
19248;DHT22;9758;48.640;8.148;2023-02-11T04:51:24;4.70;54.70
19248;DHT22;9758;48.640;8.148;2023-02-11T04:53:51;4.80;54.70
19248;DHT22;9758;48.640;8.148;2023-02-11T04:56:18;4.70;54.70
19248;DHT22;9758;48.640;8.148;2023-02-11T04:58:46;4.70;54.60
19248;DHT22;9758;48.640;8.148;2023-02-11T05:01:14;4.70;54.60
19248;DHT22;9758;48.640;8.148;2023-02-11T05:03:42;4.70;54.70
19248;DHT22;9758;48.640;8.148;2023-02-11T05:06:09;4.70;54.70
19248;DHT22;9758;48.640;8.148;2023-02-11T05:08:36;4.70;54.70
19248;DHT22;9758;48.640;8.148;2023-02-11T05:11:04;4.70;54.70
19248;DHT22;9758;48.640;8.148;2023-02-11T05:13:31;4.70;54.70
19248;DHT22;9758;48.640;8.148;2023-02-11T05:15:59;4.70;54.70
19248;DHT22;9758;48.640;8.148;2023-02-11T05:18:25;4.80;54.70
19248;DHT22;9758;48.640;8.148;2023-02-11T05:20:52;4.70;54.70
19248;DHT22;9758;48.640;8.148;2023-02-11T05:23:19;4.70;54.70
19248;DHT22;9758;48.640;8.148;2023-02-11T05:25:46;4.70;54.80
19248;DHT22;9758;48.640;8.148;2023-02-11T05:28:13;4.70;55.40
19248;DHT22;9758;48.640;8.148;2023-02-11T05:30:39;4.80;54.90
19248;DHT22;9758;48.640;8.148;2023-02-11T05:33:07;4.80;54.90
19248;DHT22;9758;48.640;8.148;2023-02-11T05:35:34;4.80;54.90
19248;DHT22;9758;48.640;8.148;2023-02-11T05:38:01;4.90;54.90
19248;DHT22;9758;48.640;8.148;2023-02-11T05:40:27;4.80;54.90
19248;DHT22;9758;48.640;8.148;2023-02-11T05:42:54;4.90;54.90
19248;DHT22;9758;48.640;8.148;2023-02-11T05:45:21;4.90;54.90
19248;DHT22;9758;48.640;8.148;2023-02-11T05:47:47;4.90;54.90
19248;DHT22;9758;48.640;8.148;2023-02-11T05:50:16;4.90;54.80
19248;DHT22;9758;48.640;8.148;2023-02-11T05:52:43;4.90;54.80
19248;DHT22;9758;48.640;8.148;2023-02-11T05:55:09;4.90;55.40
19248;DHT22;9758;48.640;8.148;2023-02-11T05:57:36;4.90;54.80
19248;DHT22;9758;48.640;8.148;2023-02-11T06:00:04;4.90;54.80
19248;DHT22;9758;48.640;8.148;2023-02-11T06:02:31;4.90;54.80
19248;DHT22;9758;48.640;8.148;2023-02-11T06:04:58;4.90;54.80
19248;DHT22;9758;48.640;8.148;2023-02-11T06:07:26;4.90;54.80
19248;DHT22;9758;48.640;8.148;2023-02-11T06:09:53;4.90;54.90
19248;DHT22;9758;48.640;8.148;2023-02-11T06:12:19;4.90;54.90
19248;DHT22;9758;48.640;8.148;2023-02-11T06:14:46;5.00;55.00
19248;DHT22;9758;48.640;8.148;2023-02-11T06:17:13;5.00;55.00
19248;DHT22;9758;48.640;8.148;2023-02-11T06:19:40;5.00;55.00
19248;DHT22;9758;48.640;8.148;2023-02-11T06:22:06;5.00;55.00
19248;DHT22;9758;48.640;8.148;2023-02-11T06:24:34;5.00;55.10
19248;DHT22;9758;48.640;8.148;2023-02-11T06:27:03;5.00;55.00
19248;DHT22;9758;48.640;8.148;2023-02-11T06:29:32;5.00;55.00
19248;DHT22;9758;48.640;8.148;2023-02-11T06:31:59;5.00;55.00
19248;DHT22;9758;48.640;8.148;2023-02-11T06:34:26;5.10;55.00
19248;DHT22;9758;48.640;8.148;2023-02-11T06:36:52;5.00;55.00
19248;DHT22;9758;48.640;8.148;2023-02-11T06:39:19;5.10;55.00
19248;DHT22;9758;48.640;8.148;2023-02-11T06:41:47;5.10;55.00
19248;DHT22;9758;48.640;8.148;2023-02-11T06:44:14;5.10;55.00
19248;DHT22;9758;48.640;8.148;2023-02-11T06:46:40;5.10;55.00
19248;DHT22;9758;48.640;8.148;2023-02-11T06:49:07;5.10;55.00
19248;DHT22;9758;48.640;8.148;2023-02-11T06:51:34;5.10;55.00
19248;DHT22;9758;48.640;8.148;2023-02-11T06:54:01;5.20;55.10
19248;DHT22;9758;48.640;8.148;2023-02-11T06:56:27;5.20;55.00
19248;DHT22;9758;48.640;8.148;2023-02-11T06:58:56;5.20;55.10
19248;DHT22;9758;48.640;8.148;2023-02-11T07:01:24;5.20;55.00
19248;DHT22;9758;48.640;8.148;2023-02-11T07:03:52;5.20;55.00
19248;DHT22;9758;48.640;8.148;2023-02-11T07:06:21;5.30;55.10
19248;DHT22;9758;48.640;8.148;2023-02-11T07:08:49;5.30;55.00
19248;DHT22;9758;48.640;8.148;2023-02-11T07:11:17;5.30;55.00
19248;DHT22;9758;48.640;8.148;2023-02-11T07:13:46;5.30;55.00
19248;DHT22;9758;48.640;8.148;2023-02-11T07:16:15;5.30;55.00
19248;DHT22;9758;48.640;8.148;2023-02-11T07:18:43;5.30;55.00
19248;DHT22;9758;48.640;8.148;2023-02-11T07:21:11;5.40;55.10
19248;DHT22;9758;48.640;8.148;2023-02-11T07:23:39;5.40;55.10
19248;DHT22;9758;48.640;8.148;2023-02-11T07:26:07;5.40;55.10
19248;DHT22;9758;48.640;8.148;2023-02-11T07:28:36;5.50;55.10
19248;DHT22;9758;48.640;8.148;2023-02-11T07:31:05;5.50;55.10
19248;DHT22;9758;48.640;8.148;2023-02-11T07:33:33;5.50;55.00
19248;DHT22;9758;48.640;8.148;2023-02-11T07:36:00;5.60;55.10
19248;DHT22;9758;48.640;8.148;2023-02-11T07:38:27;5.60;55.10
19248;DHT22;9758;48.640;8.148;2023-02-11T07:40:54;5.70;55.10
19248;DHT22;9758;48.640;8.148;2023-02-11T07:43:20;5.70;55.00
19248;DHT22;9758;48.640;8.148;2023-02-11T07:45:47;5.70;55.60
19248;DHT22;9758;48.640;8.148;2023-02-11T07:48:14;5.70;55.00
19248;DHT22;9758;48.640;8.148;2023-02-11T07:50:42;5.80;55.00
19248;DHT22;9758;48.640;8.148;2023-02-11T07:53:09;5.80;55.00
19248;DHT22;9758;48.640;8.148;2023-02-11T07:55:35;5.80;55.00
19248;DHT22;9758;48.640;8.148;2023-02-11T07:58:02;5.80;55.00
19248;DHT22;9758;48.640;8.148;2023-02-11T08:00:29;5.80;55.00
19248;DHT22;9758;48.640;8.148;2023-02-11T08:02:56;5.90;55.00
19248;DHT22;9758;48.640;8.148;2023-02-11T08:05:22;5.80;55.00
19248;DHT22;9758;48.640;8.148;2023-02-11T08:07:52;5.90;55.00
19248;DHT22;9758;48.640;8.148;2023-02-11T08:10:19;5.90;55.10
19248;DHT22;9758;48.640;8.148;2023-02-11T08:12:45;5.90;55.10
19248;DHT22;9758;48.640;8.148;2023-02-11T08:15:12;5.90;55.10
19248;DHT22;9758;48.640;8.148;2023-02-11T08:17:39;5.90;55.10
19248;DHT22;9758;48.640;8.148;2023-02-11T08:20:07;5.90;55.00
19248;DHT22;9758;48.640;8.148;2023-02-11T08:22:34;5.90;55.00
19248;DHT22;9758;48.640;8.148;2023-02-11T08:25:02;6.00;55.00
19248;DHT22;9758;48.640;8.148;2023-02-11T08:27:29;6.00;55.00
19248;DHT22;9758;48.640;8.148;2023-02-11T08:30:01;6.00;55.00
19248;DHT22;9758;48.640;8.148;2023-02-11T08:32:27;6.00;55.00
19248;DHT22;9758;48.640;8.148;2023-02-11T08:34:54;6.00;54.80
19248;DHT22;9758;48.640;8.148;2023-02-11T08:37:21;5.90;54.80
19248;DHT22;9758;48.640;8.148;2023-02-11T08:39:48;5.90;54.90
19248;DHT22;9758;48.640;8.148;2023-02-11T08:42:16;5.90;55.60
19248;DHT22;9758;48.640;8.148;2023-02-11T08:44:43;5.90;55.10
19248;DHT22;9758;48.640;8.148;2023-02-11T08:47:10;6.00;55.20
19248;DHT22;9758;48.640;8.148;2023-02-11T08:49:36;6.10;55.30
19248;DHT22;9758;48.640;8.148;2023-02-11T08:52:04;6.20;55.30
19248;DHT22;9758;48.640;8.148;2023-02-11T08:54:30;6.30;55.30
19248;DHT22;9758;48.640;8.148;2023-02-11T08:56:57;6.50;55.20
19248;DHT22;9758;48.640;8.148;2023-02-11T08:59:27;6.60;55.20
19248;DHT22;9758;48.640;8.148;2023-02-11T09:01:54;6.70;55.10
19248;DHT22;9758;48.640;8.148;2023-02-11T09:04:21;6.80;55.00
19248;DHT22;9758;48.640;8.148;2023-02-11T09:06:48;6.90;54.90
19248;DHT22;9758;48.640;8.148;2023-02-11T09:09:16;7.00;54.80
19248;DHT22;9758;48.640;8.148;2023-02-11T09:11:43;7.00;54.70
19248;DHT22;9758;48.640;8.148;2023-02-11T09:14:15;7.10;54.80
19248;DHT22;9758;48.640;8.148;2023-02-11T09:16:44;7.20;54.80
19248;DHT22;9758;48.640;8.148;2023-02-11T09:19:11;7.20;54.70
19248;DHT22;9758;48.640;8.148;2023-02-11T09:21:37;7.30;54.60
19248;DHT22;9758;48.640;8.148;2023-02-11T09:24:05;7.40;54.60
19248;DHT22;9758;48.640;8.148;2023-02-11T09:26:33;7.40;54.60
19248;DHT22;9758;48.640;8.148;2023-02-11T09:29:01;7.50;54.60
19248;DHT22;9758;48.640;8.148;2023-02-11T09:31:30;7.50;54.60
19248;DHT22;9758;48.640;8.148;2023-02-11T09:34:00;7.60;54.60
19248;DHT22;9758;48.640;8.148;2023-02-11T09:36:29;7.70;54.60
19248;DHT22;9758;48.640;8.148;2023-02-11T09:38:57;7.80;54.60
19248;DHT22;9758;48.640;8.148;2023-02-11T09:44:26;7.90;54.40
19248;DHT22;9758;48.640;8.148;2023-02-11T09:46:56;7.90;54.50
19248;DHT22;9758;48.640;8.148;2023-02-11T09:49:39;8.00;54.30
19248;DHT22;9758;48.640;8.148;2023-02-11T09:52:14;8.00;54.30
19248;DHT22;9758;48.640;8.148;2023-02-11T09:54:51;8.00;54.30
19248;DHT22;9758;48.640;8.148;2023-02-11T09:57:19;8.10;54.20
19248;DHT22;9758;48.640;8.148;2023-02-11T09:59:46;8.00;54.20
19248;DHT22;9758;48.640;8.148;2023-02-11T10:02:19;8.00;54.10
19248;DHT22;9758;48.640;8.148;2023-02-11T10:05:07;8.00;54.20
19248;DHT22;9758;48.640;8.148;2023-02-11T10:07:45;8.00;54.20
19248;DHT22;9758;48.640;8.148;2023-02-11T10:10:24;8.00;54.30
19248;DHT22;9758;48.640;8.148;2023-02-11T10:13:05;8.00;54.40
19248;DHT22;9758;48.640;8.148;2023-02-11T10:15:43;8.10;54.50
19248;DHT22;9758;48.640;8.148;2023-02-11T10:18:35;8.10;54.30
19248;DHT22;9758;48.640;8.148;2023-02-11T10:21:14;8.20;54.20
19248;DHT22;9758;48.640;8.148;2023-02-11T10:23:45;8.30;54.40
19248;DHT22;9758;48.640;8.148;2023-02-11T10:26:15;8.30;54.30
19248;DHT22;9758;48.640;8.148;2023-02-11T10:28:45;8.40;54.30
19248;DHT22;9758;48.640;8.148;2023-02-11T10:31:15;8.40;54.00
19248;DHT22;9758;48.640;8.148;2023-02-11T10:33:45;8.40;54.00
19248;DHT22;9758;48.640;8.148;2023-02-11T10:36:15;8.50;54.10
19248;DHT22;9758;48.640;8.148;2023-02-11T10:38:43;8.50;54.20
19248;DHT22;9758;48.640;8.148;2023-02-11T10:41:14;8.60;54.20
19248;DHT22;9758;48.640;8.148;2023-02-11T10:43:42;8.60;54.00
19248;DHT22;9758;48.640;8.148;2023-02-11T10:46:15;8.70;54.00
19248;DHT22;9758;48.640;8.148;2023-02-11T10:48:45;8.80;54.10
19248;DHT22;9758;48.640;8.148;2023-02-11T10:51:20;8.90;54.10
19248;DHT22;9758;48.640;8.148;2023-02-11T10:53:48;9.00;54.10
19248;DHT22;9758;48.640;8.148;2023-02-11T10:56:21;9.10;54.10
19248;DHT22;9758;48.640;8.148;2023-02-11T10:58:58;9.20;54.00
19248;DHT22;9758;48.640;8.148;2023-02-11T11:01:40;9.40;54.50
19248;DHT22;9758;48.640;8.148;2023-02-11T11:04:31;9.40;53.80
19248;DHT22;9758;48.640;8.148;2023-02-11T11:07:12;9.50;53.80
19248;DHT22;9758;48.640;8.148;2023-02-11T11:09:46;9.60;53.80
19248;DHT22;9758;48.640;8.148;2023-02-11T11:12:31;9.70;53.70
19248;DHT22;9758;48.640;8.148;2023-02-11T11:15:02;9.70;53.60
19248;DHT22;9758;48.640;8.148;2023-02-11T11:17:38;9.80;53.70
19248;DHT22;9758;48.640;8.148;2023-02-11T11:20:20;9.80;53.50
19248;DHT22;9758;48.640;8.148;2023-02-11T11:22:50;9.90;53.10
19248;DHT22;9758;48.640;8.148;2023-02-11T11:25:22;9.80;53.30
19248;DHT22;9758;48.640;8.148;2023-02-11T11:27:50;9.80;53.20
19248;DHT22;9758;48.640;8.148;2023-02-11T11:30:18;9.80;53.60
19248;DHT22;9758;48.640;8.148;2023-02-11T11:32:45;9.90;53.70
19248;DHT22;9758;48.640;8.148;2023-02-11T11:35:25;10.00;53.80
19248;DHT22;9758;48.640;8.148;2023-02-11T11:37:56;10.00;53.70
19248;DHT22;9758;48.640;8.148;2023-02-11T11:40:26;10.20;53.60
19248;DHT22;9758;48.640;8.148;2023-02-11T11:43:06;10.20;53.50
19248;DHT22;9758;48.640;8.148;2023-02-11T11:45:32;10.30;53.40
19248;DHT22;9758;48.640;8.148;2023-02-11T11:48:03;10.30;53.10
19248;DHT22;9758;48.640;8.148;2023-02-11T11:50:34;10.30;53.30
19248;DHT22;9758;48.640;8.148;2023-02-11T11:53:09;10.20;53.10
19248;DHT22;9758;48.640;8.148;2023-02-11T11:55:39;10.30;53.40
19248;DHT22;9758;48.640;8.148;2023-02-11T11:58:14;10.30;53.40
19248;DHT22;9758;48.640;8.148;2023-02-11T12:00:51;10.30;53.40
19248;DHT22;9758;48.640;8.148;2023-02-11T12:06:23;10.40;53.40
19248;DHT22;9758;48.640;8.148;2023-02-11T12:09:02;10.40;53.30
19248;DHT22;9758;48.640;8.148;2023-02-11T12:11:35;10.40;52.80
19248;DHT22;9758;48.640;8.148;2023-02-11T12:14:11;10.30;53.10
19248;DHT22;9758;48.640;8.148;2023-02-11T12:16:53;10.20;53.30
19248;DHT22;9758;48.640;8.148;2023-02-11T12:19:41;10.20;53.50
19248;DHT22;9758;48.640;8.148;2023-02-11T12:22:20;10.30;53.30
19248;DHT22;9758;48.640;8.148;2023-02-11T12:25:06;10.20;53.20
19248;DHT22;9758;48.640;8.148;2023-02-11T12:27:46;10.20;53.40
19248;DHT22;9758;48.640;8.148;2023-02-11T12:30:23;10.30;53.50
19248;DHT22;9758;48.640;8.148;2023-02-11T12:32:57;10.40;53.40
19248;DHT22;9758;48.640;8.148;2023-02-11T12:35:31;10.50;53.30
19248;DHT22;9758;48.640;8.148;2023-02-11T12:38:23;10.50;53.30
19248;DHT22;9758;48.640;8.148;2023-02-11T12:41:04;10.60;53.30
19248;DHT22;9758;48.640;8.148;2023-02-11T12:43:41;10.60;52.90
19248;DHT22;9758;48.640;8.148;2023-02-11T12:46:16;10.70;53.20
19248;DHT22;9758;48.640;8.148;2023-02-11T12:49:06;10.70;53.30
19248;DHT22;9758;48.640;8.148;2023-02-11T12:51:48;10.80;53.20
19248;DHT22;9758;48.640;8.148;2023-02-11T12:54:26;10.80;53.10
19248;DHT22;9758;48.640;8.148;2023-02-11T12:57:05;10.90;53.10
19248;DHT22;9758;48.640;8.148;2023-02-11T12:59:42;10.90;53.00
19248;DHT22;9758;48.640;8.148;2023-02-11T13:02:20;11.00;53.10
19248;DHT22;9758;48.640;8.148;2023-02-11T13:04:51;11.00;53.10
19248;DHT22;9758;48.640;8.148;2023-02-11T13:07:24;11.10;53.10
19248;DHT22;9758;48.640;8.148;2023-02-11T13:09:58;11.10;53.00
19248;DHT22;9758;48.640;8.148;2023-02-11T13:12:29;11.20;53.00
19248;DHT22;9758;48.640;8.148;2023-02-11T13:15:15;11.20;53.00
19248;DHT22;9758;48.640;8.148;2023-02-11T13:17:49;11.30;52.90
19248;DHT22;9758;48.640;8.148;2023-02-11T13:20:30;11.40;52.90
19248;DHT22;9758;48.640;8.148;2023-02-11T13:23:06;11.40;52.80
19248;DHT22;9758;48.640;8.148;2023-02-11T13:25:39;11.40;52.70
19248;DHT22;9758;48.640;8.148;2023-02-11T13:28:22;11.50;52.80
19248;DHT22;9758;48.640;8.148;2023-02-11T13:30:50;11.50;52.80
19248;DHT22;9758;48.640;8.148;2023-02-11T13:33:34;11.60;52.80
19248;DHT22;9758;48.640;8.148;2023-02-11T13:36:29;11.60;52.80
19248;DHT22;9758;48.640;8.148;2023-02-11T13:39:02;11.70;52.70
19248;DHT22;9758;48.640;8.148;2023-02-11T13:41:32;11.70;52.70
19248;DHT22;9758;48.640;8.148;2023-02-11T13:44:20;11.80;52.70
19248;DHT22;9758;48.640;8.148;2023-02-11T13:46:58;11.80;52.70
19248;DHT22;9758;48.640;8.148;2023-02-11T13:49:30;11.90;52.70
19248;DHT22;9758;48.640;8.148;2023-02-11T13:51:59;12.00;52.70
19248;DHT22;9758;48.640;8.148;2023-02-11T13:54:32;12.00;52.60
19248;DHT22;9758;48.640;8.148;2023-02-11T13:57:33;12.00;52.60
19248;DHT22;9758;48.640;8.148;2023-02-11T14:03:22;12.10;52.30
19248;DHT22;9758;48.640;8.148;2023-02-11T14:06:14;12.10;52.40
19248;DHT22;9758;48.640;8.148;2023-02-11T14:09:32;12.10;52.40
19248;DHT22;9758;48.640;8.148;2023-02-11T14:12:21;12.20;52.40
19248;DHT22;9758;48.640;8.148;2023-02-11T14:14:58;12.20;52.30
19248;DHT22;9758;48.640;8.148;2023-02-11T14:17:31;12.20;52.20
19248;DHT22;9758;48.640;8.148;2023-02-11T14:20:00;12.20;52.20
19248;DHT22;9758;48.640;8.148;2023-02-11T14:22:30;12.20;52.20
19248;DHT22;9758;48.640;8.148;2023-02-11T14:25:15;12.30;52.30
19248;DHT22;9758;48.640;8.148;2023-02-11T14:27:46;12.30;52.20
19248;DHT22;9758;48.640;8.148;2023-02-11T14:30:27;12.30;52.30
19248;DHT22;9758;48.640;8.148;2023-02-11T14:33:11;12.30;52.30
19248;DHT22;9758;48.640;8.148;2023-02-11T14:35:46;12.40;52.30
19248;DHT22;9758;48.640;8.148;2023-02-11T14:38:22;12.40;52.30
19248;DHT22;9758;48.640;8.148;2023-02-11T14:40:59;12.50;52.40
19248;DHT22;9758;48.640;8.148;2023-02-11T14:43:34;12.50;52.30
19248;DHT22;9758;48.640;8.148;2023-02-11T14:46:02;12.50;52.30
19248;DHT22;9758;48.640;8.148;2023-02-11T14:48:31;12.50;52.20
19248;DHT22;9758;48.640;8.148;2023-02-11T14:51:02;12.50;52.20
19248;DHT22;9758;48.640;8.148;2023-02-11T14:53:32;12.60;52.20
19248;DHT22;9758;48.640;8.148;2023-02-11T14:55:59;12.50;52.10
19248;DHT22;9758;48.640;8.148;2023-02-11T14:58:28;12.60;52.10
19248;DHT22;9758;48.640;8.148;2023-02-11T15:00:56;12.60;52.20
19248;DHT22;9758;48.640;8.148;2023-02-11T15:03:30;12.60;52.20
19248;DHT22;9758;48.640;8.148;2023-02-11T15:05:59;12.60;52.20
19248;DHT22;9758;48.640;8.148;2023-02-11T15:08:27;12.50;52.10
19248;DHT22;9758;48.640;8.148;2023-02-11T15:10:56;12.50;52.10
19248;DHT22;9758;48.640;8.148;2023-02-11T15:13:24;12.50;52.10
19248;DHT22;9758;48.640;8.148;2023-02-11T15:15:58;12.50;51.90
19248;DHT22;9758;48.640;8.148;2023-02-11T15:18:33;12.40;52.00
19248;DHT22;9758;48.640;8.148;2023-02-11T15:21:01;12.40;52.10
19248;DHT22;9758;48.640;8.148;2023-02-11T15:23:29;12.30;52.10
19248;DHT22;9758;48.640;8.148;2023-02-11T15:25:56;12.30;52.00
19248;DHT22;9758;48.640;8.148;2023-02-11T15:28:28;12.30;52.10
19248;DHT22;9758;48.640;8.148;2023-02-11T15:30:57;12.30;52.10
19248;DHT22;9758;48.640;8.148;2023-02-11T15:33:25;12.20;52.10
19248;DHT22;9758;48.640;8.148;2023-02-11T15:35:55;12.20;52.10
19248;DHT22;9758;48.640;8.148;2023-02-11T15:38:23;12.10;52.00
19248;DHT22;9758;48.640;8.148;2023-02-11T15:40:52;12.00;51.90
19248;DHT22;9758;48.640;8.148;2023-02-11T15:43:19;11.90;51.90
19248;DHT22;9758;48.640;8.148;2023-02-11T15:45:55;11.90;52.00
19248;DHT22;9758;48.640;8.148;2023-02-11T15:48:31;11.70;52.00
19248;DHT22;9758;48.640;8.148;2023-02-11T15:51:04;11.60;52.00
19248;DHT22;9758;48.640;8.148;2023-02-11T15:53:37;11.50;52.00
19248;DHT22;9758;48.640;8.148;2023-02-11T15:56:10;11.40;52.00
19248;DHT22;9758;48.640;8.148;2023-02-11T15:58:41;11.30;52.00
19248;DHT22;9758;48.640;8.148;2023-02-11T16:01:10;11.20;52.10
19248;DHT22;9758;48.640;8.148;2023-02-11T16:03:37;11.10;52.10
19248;DHT22;9758;48.640;8.148;2023-02-11T16:06:18;11.00;52.20
19248;DHT22;9758;48.640;8.148;2023-02-11T16:09:03;10.90;52.20
19248;DHT22;9758;48.640;8.148;2023-02-11T16:11:32;10.70;52.20
19248;DHT22;9758;48.640;8.148;2023-02-11T16:14:00;10.60;52.30
19248;DHT22;9758;48.640;8.148;2023-02-11T16:16:29;10.50;52.30
19248;DHT22;9758;48.640;8.148;2023-02-11T16:18:59;10.40;52.40
19248;DHT22;9758;48.640;8.148;2023-02-11T16:21:29;10.30;52.40
19248;DHT22;9758;48.640;8.148;2023-02-11T16:23:59;10.20;52.50
19248;DHT22;9758;48.640;8.148;2023-02-11T16:26:29;10.10;52.50
19248;DHT22;9758;48.640;8.148;2023-02-11T16:29:05;10.00;52.50
19248;DHT22;9758;48.640;8.148;2023-02-11T16:31:34;9.90;52.50
19248;DHT22;9758;48.640;8.148;2023-02-11T16:34:01;9.80;52.60
19248;DHT22;9758;48.640;8.148;2023-02-11T16:36:29;9.80;52.70
19248;DHT22;9758;48.640;8.148;2023-02-11T16:38:56;9.70;52.70
19248;DHT22;9758;48.640;8.148;2023-02-11T16:41:23;9.70;52.80
19248;DHT22;9758;48.640;8.148;2023-02-11T16:43:50;9.60;52.80
19248;DHT22;9758;48.640;8.148;2023-02-11T16:46:17;9.60;52.80